sensor_id;sensor_type;location;lat;lon;timestamp;temperature;humidity
4828;DHT22;2428;48.732;9.148;2023-07-29T00:01:23;17.30;99.90
4828;DHT22;2428;48.732;9.148;2023-07-29T00:03:48;17.20;99.90
4828;DHT22;2428;48.732;9.148;2023-07-29T00:06:14;17.20;99.90
4828;DHT22;2428;48.732;9.148;2023-07-29T00:08:39;17.20;99.90
4828;DHT22;2428;48.732;9.148;2023-07-29T00:11:05;17.30;99.90
4828;DHT22;2428;48.732;9.148;2023-07-29T00:13:30;17.20;99.90
4828;DHT22;2428;48.732;9.148;2023-07-29T00:15:56;17.20;99.90
4828;DHT22;2428;48.732;9.148;2023-07-29T00:18:22;17.30;99.90
4828;DHT22;2428;48.732;9.148;2023-07-29T00:20:49;17.30;99.90
4828;DHT22;2428;48.732;9.148;2023-07-29T00:23:16;17.30;99.90
4828;DHT22;2428;48.732;9.148;2023-07-29T00:25:42;17.30;99.90
4828;DHT22;2428;48.732;9.148;2023-07-29T00:28:07;17.30;99.90
4828;DHT22;2428;48.732;9.148;2023-07-29T00:30:33;17.30;99.90
4828;DHT22;2428;48.732;9.148;2023-07-29T00:32:58;17.30;99.90
4828;DHT22;2428;48.732;9.148;2023-07-29T00:35:24;17.30;99.90
4828;DHT22;2428;48.732;9.148;2023-07-29T00:37:49;17.30;99.90
4828;DHT22;2428;48.732;9.148;2023-07-29T00:40:19;17.30;99.90
4828;DHT22;2428;48.732;9.148;2023-07-29T00:42:46;17.20;99.90
4828;DHT22;2428;48.732;9.148;2023-07-29T00:45:12;17.20;99.90
4828;DHT22;2428;48.732;9.148;2023-07-29T00:47:38;17.30;99.90
4828;DHT22;2428;48.732;9.148;2023-07-29T00:50:05;17.30;99.90
4828;DHT22;2428;48.732;9.148;2023-07-29T00:52:32;17.30;99.90
4828;DHT22;2428;48.732;9.148;2023-07-29T00:54:57;17.30;99.90
4828;DHT22;2428;48.732;9.148;2023-07-29T00:57:23;17.30;99.90
4828;DHT22;2428;48.732;9.148;2023-07-29T00:59:52;17.30;99.90
4828;DHT22;2428;48.732;9.148;2023-07-29T01:02:17;17.30;99.90
4828;DHT22;2428;48.732;9.148;2023-07-29T01:04:43;17.30;99.90
4828;DHT22;2428;48.732;9.148;2023-07-29T01:07:14;17.30;99.90
4828;DHT22;2428;48.732;9.148;2023-07-29T01:12:51;17.30;99.90
4828;DHT22;2428;48.732;9.148;2023-07-29T01:15:43;17.30;99.90
4828;DHT22;2428;48.732;9.148;2023-07-29T01:18:16;17.30;99.90
4828;DHT22;2428;48.732;9.148;2023-07-29T01:20:43;17.30;99.90
4828;DHT22;2428;48.732;9.148;2023-07-29T01:23:11;17.30;99.90
4828;DHT22;2428;48.732;9.148;2023-07-29T01:25:36;17.30;99.90
4828;DHT22;2428;48.732;9.148;2023-07-29T01:28:02;17.20;99.90
4828;DHT22;2428;48.732;9.148;2023-07-29T01:30:35;17.20;99.90
4828;DHT22;2428;48.732;9.148;2023-07-29T01:35:58;17.20;99.90
4828;DHT22;2428;48.732;9.148;2023-07-29T01:38:33;17.20;99.90
4828;DHT22;2428;48.732;9.148;2023-07-29T01:41:04;17.20;99.90
4828;DHT22;2428;48.732;9.148;2023-07-29T01:43:31;17.30;99.90
4828;DHT22;2428;48.732;9.148;2023-07-29T01:45:58;17.30;99.90
4828;DHT22;2428;48.732;9.148;2023-07-29T01:48:24;17.20;99.90
4828;DHT22;2428;48.732;9.148;2023-07-29T01:50:50;17.20;99.90
4828;DHT22;2428;48.732;9.148;2023-07-29T01:53:15;17.20;99.90
4828;DHT22;2428;48.732;9.148;2023-07-29T01:55:41;17.20;99.90
4828;DHT22;2428;48.732;9.148;2023-07-29T01:58:07;17.20;99.90
4828;DHT22;2428;48.732;9.148;2023-07-29T02:00:33;17.30;99.90
4828;DHT22;2428;48.732;9.148;2023-07-29T02:02:58;17.30;99.90
4828;DHT22;2428;48.732;9.148;2023-07-29T02:05:24;17.20;99.90
4828;DHT22;2428;48.732;9.148;2023-07-29T02:07:49;17.20;99.90
4828;DHT22;2428;48.732;9.148;2023-07-29T02:10:15;17.20;99.90
4828;DHT22;2428;48.732;9.148;2023-07-29T02:12:41;17.20;99.90
4828;DHT22;2428;48.732;9.148;2023-07-29T02:15:07;17.20;99.90
4828;DHT22;2428;48.732;9.148;2023-07-29T02:17:32;17.10;99.90
4828;DHT22;2428;48.732;9.148;2023-07-29T02:19:58;17.10;99.90
4828;DHT22;2428;48.732;9.148;2023-07-29T02:22:23;17.10;99.90
4828;DHT22;2428;48.732;9.148;2023-07-29T02:24:49;17.10;99.90
4828;DHT22;2428;48.732;9.148;2023-07-29T02:27:15;17.00;99.90
4828;DHT22;2428;48.732;9.148;2023-07-29T02:29:40;17.00;99.90
4828;DHT22;2428;48.732;9.148;2023-07-29T02:32:06;17.00;99.90
4828;DHT22;2428;48.732;9.148;2023-07-29T02:34:32;17.10;99.90
4828;DHT22;2428;48.732;9.148;2023-07-29T02:36:57;17.10;99.90
4828;DHT22;2428;48.732;9.148;2023-07-29T02:39:23;17.10;99.90
4828;DHT22;2428;48.732;9.148;2023-07-29T02:41:49;17.10;99.90
4828;DHT22;2428;48.732;9.148;2023-07-29T02:44:15;17.10;99.90
4828;DHT22;2428;48.732;9.148;2023-07-29T02:46:41;17.10;99.90
4828;DHT22;2428;48.732;9.148;2023-07-29T02:49:07;17.10;99.90
4828;DHT22;2428;48.732;9.148;2023-07-29T02:51:32;17.10;99.90
4828;DHT22;2428;48.732;9.148;2023-07-29T02:53:58;17.20;99.90
4828;DHT22;2428;48.732;9.148;2023-07-29T02:56:24;17.10;99.90
4828;DHT22;2428;48.732;9.148;2023-07-29T02:58:49;17.10;99.90
4828;DHT22;2428;48.732;9.148;2023-07-29T03:01:17;17.10;99.90
4828;DHT22;2428;48.732;9.148;2023-07-29T03:03:43;17.10;99.90
4828;DHT22;2428;48.732;9.148;2023-07-29T03:06:10;17.20;99.90
4828;DHT22;2428;48.732;9.148;2023-07-29T03:08:36;17.10;99.90
4828;DHT22;2428;48.732;9.148;2023-07-29T03:11:10;17.30;99.90
4828;DHT22;2428;48.732;9.148;2023-07-29T03:13:36;17.20;99.90
4828;DHT22;2428;48.732;9.148;2023-07-29T03:16:09;17.20;99.90
4828;DHT22;2428;48.732;9.148;2023-07-29T03:18:34;17.20;99.90
4828;DHT22;2428;48.732;9.148;2023-07-29T03:21:00;17.20;99.90
4828;DHT22;2428;48.732;9.148;2023-07-29T03:23:27;17.20;99.90
4828;DHT22;2428;48.732;9.148;2023-07-29T03:25:58;17.20;99.90
4828;DHT22;2428;48.732;9.148;2023-07-29T03:28:25;17.20;99.90
4828;DHT22;2428;48.732;9.148;2023-07-29T03:30:51;17.10;99.90
4828;DHT22;2428;48.732;9.148;2023-07-29T03:33:17;17.10;99.90
4828;DHT22;2428;48.732;9.148;2023-07-29T03:35:42;17.10;99.90
4828;DHT22;2428;48.732;9.148;2023-07-29T03:38:10;17.10;99.90
4828;DHT22;2428;48.732;9.148;2023-07-29T03:40:37;17.10;99.90
4828;DHT22;2428;48.732;9.148;2023-07-29T03:43:02;17.10;99.90
4828;DHT22;2428;48.732;9.148;2023-07-29T03:45:28;17.20;99.90
4828;DHT22;2428;48.732;9.148;2023-07-29T03:47:54;17.10;99.90
4828;DHT22;2428;48.732;9.148;2023-07-29T03:50:19;17.10;99.90
4828;DHT22;2428;48.732;9.148;2023-07-29T03:52:45;17.20;99.90
4828;DHT22;2428;48.732;9.148;2023-07-29T03:55:10;17.10;99.90
4828;DHT22;2428;48.732;9.148;2023-07-29T03:57:36;17.20;99.90
4828;DHT22;2428;48.732;9.148;2023-07-29T04:00:02;17.20;99.90
4828;DHT22;2428;48.732;9.148;2023-07-29T04:02:28;17.20;99.90
4828;DHT22;2428;48.732;9.148;2023-07-29T04:04:54;17.20;99.90
4828;DHT22;2428;48.732;9.148;2023-07-29T04:07:19;17.20;99.90
4828;DHT22;2428;48.732;9.148;2023-07-29T04:09:45;17.20;99.90
4828;DHT22;2428;48.732;9.148;2023-07-29T04:12:11;17.20;99.90
4828;DHT22;2428;48.732;9.148;2023-07-29T04:14:36;17.10;99.90
4828;DHT22;2428;48.732;9.148;2023-07-29T04:17:02;17.10;99.90
4828;DHT22;2428;48.732;9.148;2023-07-29T04:19:27;17.10;99.90
4828;DHT22;2428;48.732;9.148;2023-07-29T04:21:53;17.10;99.90
4828;DHT22;2428;48.732;9.148;2023-07-29T04:24:18;17.00;99.90
4828;DHT22;2428;48.732;9.148;2023-07-29T04:26:45;17.00;99.90
4828;DHT22;2428;48.732;9.148;2023-07-29T04:29:11;17.00;99.90
4828;DHT22;2428;48.732;9.148;2023-07-29T04:31:37;17.00;99.90
4828;DHT22;2428;48.732;9.148;2023-07-29T04:34:04;17.00;99.90
4828;DHT22;2428;48.732;9.148;2023-07-29T04:36:30;17.10;99.90
4828;DHT22;2428;48.732;9.148;2023-07-29T04:38:55;17.10;99.90
4828;DHT22;2428;48.732;9.148;2023-07-29T04:41:21;17.00;99.90
4828;DHT22;2428;48.732;9.148;2023-07-29T04:43:46;17.00;99.90
4828;DHT22;2428;48.732;9.148;2023-07-29T04:46:12;17.00;99.90
4828;DHT22;2428;48.732;9.148;2023-07-29T04:48:37;17.00;99.90
4828;DHT22;2428;48.732;9.148;2023-07-29T04:51:03;17.00;99.90
4828;DHT22;2428;48.732;9.148;2023-07-29T04:53:29;17.00;99.90
4828;DHT22;2428;48.732;9.148;2023-07-29T04:55:54;17.00;99.90
4828;DHT22;2428;48.732;9.148;2023-07-29T04:58:20;17.00;99.90
4828;DHT22;2428;48.732;9.148;2023-07-29T05:00:48;17.00;99.90
4828;DHT22;2428;48.732;9.148;2023-07-29T05:03:14;17.00;99.90
4828;DHT22;2428;48.732;9.148;2023-07-29T05:05:40;17.00;99.90
4828;DHT22;2428;48.732;9.148;2023-07-29T05:08:05;17.00;99.90
4828;DHT22;2428;48.732;9.148;2023-07-29T05:10:31;17.00;99.90
4828;DHT22;2428;48.732;9.148;2023-07-29T05:12:56;17.00;99.90
4828;DHT22;2428;48.732;9.148;2023-07-29T05:15:22;17.00;99.90
4828;DHT22;2428;48.732;9.148;2023-07-29T05:17:47;17.00;99.90
4828;DHT22;2428;48.732;9.148;2023-07-29T05:20:13;17.00;99.90
4828;DHT22;2428;48.732;9.148;2023-07-29T05:22:38;17.00;99.90
4828;DHT22;2428;48.732;9.148;2023-07-29T05:25:04;17.00;99.90
4828;DHT22;2428;48.732;9.148;2023-07-29T05:27:30;17.10;99.90
4828;DHT22;2428;48.732;9.148;2023-07-29T05:29:56;17.10;99.90
4828;DHT22;2428;48.732;9.148;2023-07-29T05:32:21;17.10;99.90
4828;DHT22;2428;48.732;9.148;2023-07-29T05:34:47;17.10;99.90
4828;DHT22;2428;48.732;9.148;2023-07-29T05:37:12;17.10;99.90
4828;DHT22;2428;48.732;9.148;2023-07-29T05:39:38;17.10;99.90
4828;DHT22;2428;48.732;9.148;2023-07-29T05:42:04;17.20;99.90
4828;DHT22;2428;48.732;9.148;2023-07-29T05:44:29;17.20;99.90
4828;DHT22;2428;48.732;9.148;2023-07-29T05:46:58;17.20;99.90
4828;DHT22;2428;48.732;9.148;2023-07-29T05:49:23;17.20;99.90
4828;DHT22;2428;48.732;9.148;2023-07-29T05:51:49;17.30;99.90
4828;DHT22;2428;48.732;9.148;2023-07-29T05:54:18;17.30;99.90
4828;DHT22;2428;48.732;9.148;2023-07-29T05:56:44;17.40;99.90
4828;DHT22;2428;48.732;9.148;2023-07-29T05:59:09;17.40;99.90
4828;DHT22;2428;48.732;9.148;2023-07-29T06:01:35;17.40;99.90
4828;DHT22;2428;48.732;9.148;2023-07-29T06:04:01;17.50;99.90
4828;DHT22;2428;48.732;9.148;2023-07-29T06:06:27;17.50;99.90
4828;DHT22;2428;48.732;9.148;2023-07-29T06:08:52;17.50;99.90
4828;DHT22;2428;48.732;9.148;2023-07-29T06:11:18;17.50;99.90
4828;DHT22;2428;48.732;9.148;2023-07-29T06:13:44;17.60;99.90
4828;DHT22;2428;48.732;9.148;2023-07-29T06:16:09;17.70;99.90
4828;DHT22;2428;48.732;9.148;2023-07-29T06:18:35;17.70;99.90
4828;DHT22;2428;48.732;9.148;2023-07-29T06:21:00;17.80;99.90
4828;DHT22;2428;48.732;9.148;2023-07-29T06:23:26;17.80;99.90
4828;DHT22;2428;48.732;9.148;2023-07-29T06:25:51;17.90;99.90
4828;DHT22;2428;48.732;9.148;2023-07-29T06:28:17;18.00;99.90
4828;DHT22;2428;48.732;9.148;2023-07-29T06:30:42;18.10;99.90
4828;DHT22;2428;48.732;9.148;2023-07-29T06:33:08;18.30;99.90
4828;DHT22;2428;48.732;9.148;2023-07-29T06:35:34;18.20;99.90
4828;DHT22;2428;48.732;9.148;2023-07-29T06:38:00;18.20;99.90
4828;DHT22;2428;48.732;9.148;2023-07-29T06:40:25;18.20;99.90
4828;DHT22;2428;48.732;9.148;2023-07-29T06:42:51;18.20;99.90
4828;DHT22;2428;48.732;9.148;2023-07-29T06:45:17;18.20;99.90
4828;DHT22;2428;48.732;9.148;2023-07-29T06:47:42;18.20;99.90
4828;DHT22;2428;48.732;9.148;2023-07-29T06:50:08;18.20;99.90
4828;DHT22;2428;48.732;9.148;2023-07-29T06:52:34;18.20;99.90
4828;DHT22;2428;48.732;9.148;2023-07-29T06:54:59;18.10;99.90
4828;DHT22;2428;48.732;9.148;2023-07-29T06:57:25;18.10;99.90
4828;DHT22;2428;48.732;9.148;2023-07-29T06:59:51;18.10;99.90
4828;DHT22;2428;48.732;9.148;2023-07-29T07:02:16;18.10;99.90
4828;DHT22;2428;48.732;9.148;2023-07-29T07:04:42;18.00;99.90
4828;DHT22;2428;48.732;9.148;2023-07-29T07:07:07;17.90;99.90
4828;DHT22;2428;48.732;9.148;2023-07-29T07:09:33;17.90;99.90
4828;DHT22;2428;48.732;9.148;2023-07-29T07:11:58;17.80;99.90
4828;DHT22;2428;48.732;9.148;2023-07-29T07:14:24;17.80;99.90
4828;DHT22;2428;48.732;9.148;2023-07-29T07:16:50;17.70;99.90
4828;DHT22;2428;48.732;9.148;2023-07-29T07:19:15;17.70;99.90
4828;DHT22;2428;48.732;9.148;2023-07-29T07:21:41;17.60;99.90
4828;DHT22;2428;48.732;9.148;2023-07-29T07:24:06;17.60;99.90
4828;DHT22;2428;48.732;9.148;2023-07-29T07:26:32;17.70;99.90
4828;DHT22;2428;48.732;9.148;2023-07-29T07:28:58;17.70;99.90
4828;DHT22;2428;48.732;9.148;2023-07-29T07:31:23;17.60;99.90
4828;DHT22;2428;48.732;9.148;2023-07-29T07:33:49;17.60;99.90
4828;DHT22;2428;48.732;9.148;2023-07-29T07:36:15;17.60;99.90
4828;DHT22;2428;48.732;9.148;2023-07-29T07:38:41;17.70;99.90
4828;DHT22;2428;48.732;9.148;2023-07-29T07:41:06;17.60;99.90
4828;DHT22;2428;48.732;9.148;2023-07-29T07:43:32;17.70;99.90
4828;DHT22;2428;48.732;9.148;2023-07-29T07:45:59;17.60;99.90
4828;DHT22;2428;48.732;9.148;2023-07-29T07:48:25;17.70;99.90
4828;DHT22;2428;48.732;9.148;2023-07-29T07:50:50;17.70;99.90
4828;DHT22;2428;48.732;9.148;2023-07-29T07:53:16;17.70;99.90
4828;DHT22;2428;48.732;9.148;2023-07-29T07:55:42;17.80;99.90
4828;DHT22;2428;48.732;9.148;2023-07-29T07:58:07;17.80;99.90
4828;DHT22;2428;48.732;9.148;2023-07-29T08:00:33;17.90;99.90
4828;DHT22;2428;48.732;9.148;2023-07-29T08:02:58;17.90;99.90
4828;DHT22;2428;48.732;9.148;2023-07-29T08:05:24;18.00;99.90
4828;DHT22;2428;48.732;9.148;2023-07-29T08:07:49;18.00;99.90
4828;DHT22;2428;48.732;9.148;2023-07-29T08:10:15;18.10;99.90
4828;DHT22;2428;48.732;9.148;2023-07-29T08:12:41;18.10;99.90
4828;DHT22;2428;48.732;9.148;2023-07-29T08:15:06;18.20;99.90
4828;DHT22;2428;48.732;9.148;2023-07-29T08:17:32;18.30;99.90
4828;DHT22;2428;48.732;9.148;2023-07-29T08:19:58;18.30;99.90
4828;DHT22;2428;48.732;9.148;2023-07-29T08:22:23;18.40;99.90
4828;DHT22;2428;48.732;9.148;2023-07-29T08:24:49;18.60;99.90
4828;DHT22;2428;48.732;9.148;2023-07-29T08:27:14;18.50;99.90
4828;DHT22;2428;48.732;9.148;2023-07-29T08:29:40;18.60;99.90
4828;DHT22;2428;48.732;9.148;2023-07-29T08:32:05;18.70;99.90
4828;DHT22;2428;48.732;9.148;2023-07-29T08:34:31;18.70;99.90
4828;DHT22;2428;48.732;9.148;2023-07-29T08:36:57;18.80;99.90
4828;DHT22;2428;48.732;9.148;2023-07-29T08:39:22;18.80;99.90
4828;DHT22;2428;48.732;9.148;2023-07-29T08:41:57;18.90;99.90
4828;DHT22;2428;48.732;9.148;2023-07-29T08:44:29;19.00;99.90
4828;DHT22;2428;48.732;9.148;2023-07-29T08:46:56;19.10;99.90
4828;DHT22;2428;48.732;9.148;2023-07-29T08:49:23;19.20;99.90
4828;DHT22;2428;48.732;9.148;2023-07-29T08:51:50;19.30;99.90
4828;DHT22;2428;48.732;9.148;2023-07-29T08:54:18;19.40;99.90
4828;DHT22;2428;48.732;9.148;2023-07-29T08:56:45;19.40;99.90
4828;DHT22;2428;48.732;9.148;2023-07-29T08:59:11;19.40;99.90
4828;DHT22;2428;48.732;9.148;2023-07-29T09:01:41;19.60;99.90
4828;DHT22;2428;48.732;9.148;2023-07-29T09:04:07;19.80;99.90
4828;DHT22;2428;48.732;9.148;2023-07-29T09:06:32;19.90;99.90
4828;DHT22;2428;48.732;9.148;2023-07-29T09:08:59;20.00;99.90
4828;DHT22;2428;48.732;9.148;2023-07-29T09:11:25;19.90;99.90
4828;DHT22;2428;48.732;9.148;2023-07-29T09:13:51;19.90;99.90
4828;DHT22;2428;48.732;9.148;2023-07-29T09:16:20;19.90;99.90
4828;DHT22;2428;48.732;9.148;2023-07-29T09:18:51;19.80;99.90
4828;DHT22;2428;48.732;9.148;2023-07-29T09:21:23;19.90;99.90
4828;DHT22;2428;48.732;9.148;2023-07-29T09:23:50;19.90;99.90
4828;DHT22;2428;48.732;9.148;2023-07-29T09:26:26;20.00;99.90
4828;DHT22;2428;48.732;9.148;2023-07-29T09:28:56;20.10;99.90
4828;DHT22;2428;48.732;9.148;2023-07-29T09:31:24;20.20;99.90
4828;DHT22;2428;48.732;9.148;2023-07-29T09:33:55;20.40;99.90
4828;DHT22;2428;48.732;9.148;2023-07-29T09:36:22;20.40;99.90
4828;DHT22;2428;48.732;9.148;2023-07-29T09:38:48;20.40;99.90
4828;DHT22;2428;48.732;9.148;2023-07-29T09:41:15;20.50;99.90
4828;DHT22;2428;48.732;9.148;2023-07-29T09:43:40;20.50;99.90
4828;DHT22;2428;48.732;9.148;2023-07-29T09:46:06;20.50;99.90
4828;DHT22;2428;48.732;9.148;2023-07-29T09:48:36;20.50;99.90
4828;DHT22;2428;48.732;9.148;2023-07-29T09:51:11;20.80;99.90
4828;DHT22;2428;48.732;9.148;2023-07-29T09:53:46;20.80;99.90
4828;DHT22;2428;48.732;9.148;2023-07-29T09:56:12;20.90;99.90
4828;DHT22;2428;48.732;9.148;2023-07-29T09:58:39;21.00;99.90
4828;DHT22;2428;48.732;9.148;2023-07-29T10:01:06;21.10;99.90
4828;DHT22;2428;48.732;9.148;2023-07-29T10:03:32;21.20;99.90
4828;DHT22;2428;48.732;9.148;2023-07-29T10:06:05;21.30;99.90
4828;DHT22;2428;48.732;9.148;2023-07-29T10:08:32;21.40;99.90
4828;DHT22;2428;48.732;9.148;2023-07-29T10:11:01;21.60;99.90
4828;DHT22;2428;48.732;9.148;2023-07-29T10:13:27;21.60;99.90
4828;DHT22;2428;48.732;9.148;2023-07-29T10:15:54;21.70;99.90
4828;DHT22;2428;48.732;9.148;2023-07-29T10:18:22;21.80;99.90
4828;DHT22;2428;48.732;9.148;2023-07-29T10:20:50;22.00;99.90
4828;DHT22;2428;48.732;9.148;2023-07-29T10:23:18;22.20;99.90
4828;DHT22;2428;48.732;9.148;2023-07-29T10:25:49;22.60;99.90
4828;DHT22;2428;48.732;9.148;2023-07-29T10:28:17;22.90;99.90
4828;DHT22;2428;48.732;9.148;2023-07-29T10:30:46;22.80;99.90
4828;DHT22;2428;48.732;9.148;2023-07-29T10:33:12;22.80;99.90
4828;DHT22;2428;48.732;9.148;2023-07-29T10:35:38;23.20;99.90
4828;DHT22;2428;48.732;9.148;2023-07-29T10:38:04;23.70;99.90
4828;DHT22;2428;48.732;9.148;2023-07-29T10:40:53;24.10;99.90
4828;DHT22;2428;48.732;9.148;2023-07-29T10:43:26;23.60;99.90
4828;DHT22;2428;48.732;9.148;2023-07-29T10:45:53;23.50;99.90
4828;DHT22;2428;48.732;9.148;2023-07-29T10:53:47;23.70;99.90
4828;DHT22;2428;48.732;9.148;2023-07-29T10:56:13;24.00;99.90
4828;DHT22;2428;48.732;9.148;2023-07-29T10:58:38;24.30;99.90
4828;DHT22;2428;48.732;9.148;2023-07-29T11:01:12;24.10;99.90
4828;DHT22;2428;48.732;9.148;2023-07-29T11:03:38;23.90;99.90
4828;DHT22;2428;48.732;9.148;2023-07-29T11:06:06;23.80;99.90
4828;DHT22;2428;48.732;9.148;2023-07-29T11:08:32;24.00;99.90
4828;DHT22;2428;48.732;9.148;2023-07-29T11:11:12;24.60;99.90
4828;DHT22;2428;48.732;9.148;2023-07-29T11:13:38;24.50;99.90
4828;DHT22;2428;48.732;9.148;2023-07-29T11:16:04;24.00;99.90
4828;DHT22;2428;48.732;9.148;2023-07-29T11:18:33;23.80;99.90
4828;DHT22;2428;48.732;9.148;2023-07-29T11:21:00;23.90;99.90
4828;DHT22;2428;48.732;9.148;2023-07-29T11:25:55;24.50;99.90
4828;DHT22;2428;48.732;9.148;2023-07-29T11:28:20;24.50;99.90
4828;DHT22;2428;48.732;9.148;2023-07-29T11:30:47;24.20;99.90
4828;DHT22;2428;48.732;9.148;2023-07-29T11:33:16;23.90;99.90
4828;DHT22;2428;48.732;9.148;2023-07-29T11:35:42;23.60;99.90
4828;DHT22;2428;48.732;9.148;2023-07-29T11:38:14;23.40;99.90
4828;DHT22;2428;48.732;9.148;2023-07-29T11:40:39;23.40;99.90
4828;DHT22;2428;48.732;9.148;2023-07-29T11:43:05;23.40;99.90
4828;DHT22;2428;48.732;9.148;2023-07-29T11:45:30;23.30;99.90
4828;DHT22;2428;48.732;9.148;2023-07-29T11:47:56;23.60;99.90
4828;DHT22;2428;48.732;9.148;2023-07-29T11:50:22;23.90;99.90
4828;DHT22;2428;48.732;9.148;2023-07-29T11:52:48;24.50;99.90
4828;DHT22;2428;48.732;9.148;2023-07-29T11:55:14;25.20;99.90
4828;DHT22;2428;48.732;9.148;2023-07-29T11:57:41;25.30;99.90
4828;DHT22;2428;48.732;9.148;2023-07-29T12:00:08;26.00;99.90
4828;DHT22;2428;48.732;9.148;2023-07-29T12:02:38;26.30;99.90
4828;DHT22;2428;48.732;9.148;2023-07-29T12:05:05;26.20;99.90
4828;DHT22;2428;48.732;9.148;2023-07-29T12:07:31;26.10;99.90
4828;DHT22;2428;48.732;9.148;2023-07-29T12:09:59;26.10;99.90
4828;DHT22;2428;48.732;9.148;2023-07-29T12:12:24;26.50;99.90
4828;DHT22;2428;48.732;9.148;2023-07-29T12:14:50;26.30;99.90
4828;DHT22;2428;48.732;9.148;2023-07-29T12:17:15;26.50;99.90
4828;DHT22;2428;48.732;9.148;2023-07-29T12:19:42;27.00;99.90
4828;DHT22;2428;48.732;9.148;2023-07-29T12:22:09;26.90;99.90
4828;DHT22;2428;48.732;9.148;2023-07-29T12:24:38;26.70;99.90
4828;DHT22;2428;48.732;9.148;2023-07-29T12:27:04;26.80;99.90
4828;DHT22;2428;48.732;9.148;2023-07-29T12:29:30;26.60;99.90
4828;DHT22;2428;48.732;9.148;2023-07-29T12:32:01;26.30;99.90
4828;DHT22;2428;48.732;9.148;2023-07-29T12:34:28;26.30;99.90
4828;DHT22;2428;48.732;9.148;2023-07-29T12:36:55;26.20;99.90
4828;DHT22;2428;48.732;9.148;2023-07-29T12:39:32;26.20;99.90
4828;DHT22;2428;48.732;9.148;2023-07-29T12:42:00;26.00;99.90
4828;DHT22;2428;48.732;9.148;2023-07-29T12:44:29;25.80;99.90
4828;DHT22;2428;48.732;9.148;2023-07-29T12:46:55;26.00;99.90
4828;DHT22;2428;48.732;9.148;2023-07-29T12:49:20;26.00;99.90
4828;DHT22;2428;48.732;9.148;2023-07-29T12:51:46;26.40;99.90
4828;DHT22;2428;48.732;9.148;2023-07-29T12:54:11;25.90;99.90
4828;DHT22;2428;48.732;9.148;2023-07-29T12:56:37;25.40;99.90
4828;DHT22;2428;48.732;9.148;2023-07-29T12:59:03;25.20;99.90
4828;DHT22;2428;48.732;9.148;2023-07-29T13:01:29;25.30;99.90
4828;DHT22;2428;48.732;9.148;2023-07-29T13:03:55;25.30;99.90
4828;DHT22;2428;48.732;9.148;2023-07-29T13:06:21;25.50;99.90
4828;DHT22;2428;48.732;9.148;2023-07-29T13:08:47;25.60;99.90
4828;DHT22;2428;48.732;9.148;2023-07-29T13:11:13;25.70;99.90
4828;DHT22;2428;48.732;9.148;2023-07-29T13:13:39;25.60;99.90
4828;DHT22;2428;48.732;9.148;2023-07-29T13:16:05;25.60;99.90
4828;DHT22;2428;48.732;9.148;2023-07-29T13:18:31;25.40;99.90
4828;DHT22;2428;48.732;9.148;2023-07-29T13:20:57;25.10;99.90
4828;DHT22;2428;48.732;9.148;2023-07-29T13:23:23;25.10;99.90
4828;DHT22;2428;48.732;9.148;2023-07-29T13:25:48;25.20;99.90
4828;DHT22;2428;48.732;9.148;2023-07-29T13:28:14;25.10;99.90
4828;DHT22;2428;48.732;9.148;2023-07-29T13:30:40;24.80;99.90
4828;DHT22;2428;48.732;9.148;2023-07-29T13:33:09;24.70;99.90
4828;DHT22;2428;48.732;9.148;2023-07-29T13:35:34;24.60;99.90
4828;DHT22;2428;48.732;9.148;2023-07-29T13:38:00;24.50;99.90
4828;DHT22;2428;48.732;9.148;2023-07-29T13:40:26;24.50;99.90
4828;DHT22;2428;48.732;9.148;2023-07-29T13:42:52;24.50;99.90
4828;DHT22;2428;48.732;9.148;2023-07-29T13:45:18;24.50;99.90
4828;DHT22;2428;48.732;9.148;2023-07-29T13:47:44;24.60;99.90
4828;DHT22;2428;48.732;9.148;2023-07-29T13:50:09;24.40;99.90
4828;DHT22;2428;48.732;9.148;2023-07-29T13:52:36;24.40;99.90
4828;DHT22;2428;48.732;9.148;2023-07-29T13:55:02;24.30;99.90
4828;DHT22;2428;48.732;9.148;2023-07-29T13:57:28;24.20;99.90
4828;DHT22;2428;48.732;9.148;2023-07-29T13:59:53;24.20;99.90
4828;DHT22;2428;48.732;9.148;2023-07-29T14:02:19;24.20;99.90
4828;DHT22;2428;48.732;9.148;2023-07-29T14:04:45;24.10;99.90
4828;DHT22;2428;48.732;9.148;2023-07-29T14:07:10;24.20;99.90
4828;DHT22;2428;48.732;9.148;2023-07-29T14:09:36;24.30;99.90
4828;DHT22;2428;48.732;9.148;2023-07-29T14:12:02;24.20;99.90
4828;DHT22;2428;48.732;9.148;2023-07-29T14:14:28;24.20;99.90
4828;DHT22;2428;48.732;9.148;2023-07-29T14:16:54;24.10;99.90
4828;DHT22;2428;48.732;9.148;2023-07-29T14:19:20;24.00;99.90
4828;DHT22;2428;48.732;9.148;2023-07-29T14:21:45;24.00;99.90
4828;DHT22;2428;48.732;9.148;2023-07-29T14:24:11;23.80;99.90
4828;DHT22;2428;48.732;9.148;2023-07-29T14:26:36;23.90;99.90
4828;DHT22;2428;48.732;9.148;2023-07-29T14:29:02;23.80;99.90
4828;DHT22;2428;48.732;9.148;2023-07-29T14:31:27;23.80;99.90
4828;DHT22;2428;48.732;9.148;2023-07-29T14:33:53;23.80;99.90
4828;DHT22;2428;48.732;9.148;2023-07-29T14:36:18;23.80;99.90
4828;DHT22;2428;48.732;9.148;2023-07-29T14:38:44;23.90;99.90
4828;DHT22;2428;48.732;9.148;2023-07-29T14:41:09;24.00;99.90
4828;DHT22;2428;48.732;9.148;2023-07-29T14:43:35;24.20;99.90
4828;DHT22;2428;48.732;9.148;2023-07-29T14:46:01;24.20;99.90
4828;DHT22;2428;48.732;9.148;2023-07-29T14:48:27;24.20;99.90
4828;DHT22;2428;48.732;9.148;2023-07-29T14:50:53;24.20;99.90
4828;DHT22;2428;48.732;9.148;2023-07-29T14:53:19;24.10;99.90
4828;DHT22;2428;48.732;9.148;2023-07-29T14:55:44;24.00;99.90
4828;DHT22;2428;48.732;9.148;2023-07-29T14:58:10;24.00;99.90
4828;DHT22;2428;48.732;9.148;2023-07-29T15:00:36;24.00;99.90
4828;DHT22;2428;48.732;9.148;2023-07-29T15:03:01;24.10;99.90
4828;DHT22;2428;48.732;9.148;2023-07-29T15:05:27;24.00;99.90
4828;DHT22;2428;48.732;9.148;2023-07-29T15:07:53;24.00;99.90
4828;DHT22;2428;48.732;9.148;2023-07-29T15:10:19;23.80;99.90
4828;DHT22;2428;48.732;9.148;2023-07-29T15:12:45;23.80;99.90
4828;DHT22;2428;48.732;9.148;2023-07-29T15:15:11;23.80;99.90
4828;DHT22;2428;48.732;9.148;2023-07-29T15:17:38;23.80;99.90
4828;DHT22;2428;48.732;9.148;2023-07-29T15:20:04;23.80;99.90
4828;DHT22;2428;48.732;9.148;2023-07-29T15:22:30;23.80;99.90
4828;DHT22;2428;48.732;9.148;2023-07-29T15:24:57;23.80;99.90
4828;DHT22;2428;48.732;9.148;2023-07-29T15:27:23;23.80;99.90
4828;DHT22;2428;48.732;9.148;2023-07-29T15:29:48;23.90;99.90
4828;DHT22;2428;48.732;9.148;2023-07-29T15:32:14;23.80;99.90
4828;DHT22;2428;48.732;9.148;2023-07-29T15:34:40;23.80;99.90
4828;DHT22;2428;48.732;9.148;2023-07-29T15:37:05;24.00;99.90
4828;DHT22;2428;48.732;9.148;2023-07-29T15:39:31;23.90;99.90
4828;DHT22;2428;48.732;9.148;2023-07-29T15:41:57;24.00;99.90
4828;DHT22;2428;48.732;9.148;2023-07-29T15:44:23;24.10;99.90
4828;DHT22;2428;48.732;9.148;2023-07-29T15:46:48;24.10;99.90
4828;DHT22;2428;48.732;9.148;2023-07-29T15:49:17;24.20;99.90
4828;DHT22;2428;48.732;9.148;2023-07-29T15:51:42;24.20;99.90
4828;DHT22;2428;48.732;9.148;2023-07-29T15:54:08;24.30;99.90
4828;DHT22;2428;48.732;9.148;2023-07-29T15:56:33;24.20;99.90
4828;DHT22;2428;48.732;9.148;2023-07-29T15:59:01;24.10;99.90
4828;DHT22;2428;48.732;9.148;2023-07-29T16:01:28;24.00;99.90
4828;DHT22;2428;48.732;9.148;2023-07-29T16:03:54;24.00;99.90
4828;DHT22;2428;48.732;9.148;2023-07-29T16:06:20;24.10;99.90
4828;DHT22;2428;48.732;9.148;2023-07-29T16:08:45;24.10;99.90
4828;DHT22;2428;48.732;9.148;2023-07-29T16:11:11;24.20;99.90